Time;durP1;ratioP1;P1;durP2;ratioP2;P2;SDS_P1;SDS_P2;PMS_P1;PMS_P2;Temp;Humidity;BMP_temperature;BMP_pressure;BME280_temperature;BME280_humidity;BME280_pressure;Samples;Min_cycle;Max_cycle;Signal;HPM_P1;HPM_P2
2022/09/05 00:02:53;;;;;;;3.80;3.50;;;;;;;-144.22;100.00;60274.75;6231869;28;20236;-64
2022/09/05 00:06:16;;;;;;;3.90;3.60;;;;;;;-144.22;100.00;60274.75;6232921;28;20676;-64
2022/09/05 00:09:37;;;;;;;3.53;3.30;;;;;;;-144.22;100.00;60274.75;6232210;28;20337;-64
2022/09/05 00:12:40;;;;;;;4.00;3.70;;;;;;;-144.22;100.00;60274.75;6233073;28;20282;-64
2022/09/05 00:15:54;;;;;;;4.40;3.93;;;;;;;-144.22;100.00;60274.75;6231123;28;20351;-64
2022/09/05 00:19:19;;;;;;;3.73;3.43;;;;;;;-144.22;100.00;60274.75;6231370;28;20603;-64
2022/09/05 00:22:49;;;;;;;4.20;3.70;;;;;;;-144.22;100.00;60274.75;6219217;28;20239;-64
2022/09/05 00:26:23;;;;;;;6.23;4.20;;;;;;;-144.22;100.00;60274.75;6231132;28;20598;-64
2022/09/05 00:29:48;;;;;;;4.20;3.90;;;;;;;-144.22;100.00;60274.75;6231474;28;20345;-64
2022/09/05 00:33:27;;;;;;;4.27;3.87;;;;;;;-144.22;100.00;60274.75;6231539;28;20330;-64
2022/09/05 00:36:48;;;;;;;4.07;3.73;;;;;;;-144.22;100.00;60274.75;6230746;28;20282;-64
2022/09/05 00:39:50;;;;;;;4.43;4.03;;;;;;;-144.22;100.00;60274.75;6231350;28;20370;-64
2022/09/05 00:43:23;;;;;;;4.80;4.40;;;;;;;-144.22;100.00;60274.75;6231100;28;20238;-64
2022/09/05 00:46:29;;;;;;;4.40;4.10;;;;;;;-144.22;100.00;60274.75;6231206;28;20240;-64
2022/09/05 00:49:48;;;;;;;4.27;3.90;;;;;;;-144.22;100.00;60274.75;6230358;28;20711;-64
2022/09/05 00:53:05;;;;;;;4.83;4.33;;;;;;;-144.22;100.00;60274.75;6231346;28;20263;-64
2022/09/05 00:56:37;;;;;;;6.10;4.40;;;;;;;-144.22;100.00;60274.75;6218256;28;20234;-64
2022/09/05 00:59:51;;;;;;;4.00;3.70;;;;;;;-144.22;100.00;60274.75;6230634;28;20231;-64
2022/09/05 01:03:28;;;;;;;4.57;4.17;;;;;;;-144.22;100.00;60274.75;6225533;28;20460;-64
2022/09/05 01:06:49;;;;;;;5.00;4.53;;;;;;;-144.22;100.00;60274.75;6211368;28;20315;-64
2022/09/05 01:10:19;;;;;;;5.13;4.73;;;;;;;-144.22;100.00;60274.75;6230489;28;20629;-64
2022/09/05 01:13:45;;;;;;;5.07;4.20;;;;;;;-144.22;100.00;60274.75;6230938;28;20309;-64
2022/09/05 01:17:36;;;;;;;4.40;4.07;;;;;;;-144.22;100.00;60274.75;6230652;28;20251;-64
2022/09/05 01:21:09;;;;;;;4.60;4.20;;;;;;;-144.22;100.00;60274.75;6213426;28;20306;-64
2022/09/05 01:24:36;;;;;;;4.90;4.50;;;;;;;-144.22;100.00;60274.75;6211698;28;20243;-64
2022/09/05 01:28:00;;;;;;;5.10;4.70;;;;;;;-144.22;100.00;60274.75;6231663;28;20220;-64
2022/09/05 01:31:59;;;;;;;4.30;3.90;;;;;;;-144.22;100.00;60274.75;6229798;28;20277;-64
2022/09/05 01:35:35;;;;;;;4.90;4.50;;;;;;;-144.22;100.00;60274.75;6230990;28;20236;-64
2022/09/05 01:38:55;;;;;;;4.60;4.20;;;;;;;-144.22;100.00;60274.75;6229804;28;20255;-64
2022/09/05 01:42:49;;;;;;;4.50;4.20;;;;;;;-144.22;100.00;60274.75;6229902;28;20235;-64
2022/09/05 01:46:08;;;;;;;5.43;4.20;;;;;;;-144.22;100.00;60274.75;6229091;28;20733;-64
2022/09/05 01:49:23;;;;;;;4.50;4.20;;;;;;;-144.22;100.00;60274.75;6230459;28;20228;-64
2022/09/05 01:52:37;;;;;;;4.57;4.17;;;;;;;-144.22;100.00;60274.75;6230374;28;20564;-64
2022/09/05 01:56:16;;;;;;;4.27;3.97;;;;;;;-144.22;100.00;60274.75;6229230;28;20765;-64
2022/09/05 01:59:24;;;;;;;4.20;3.80;;;;;;;-144.22;100.00;60274.75;6228886;28;20232;-64
2022/09/05 02:03:07;;;;;;;4.20;3.83;;;;;;;-144.22;100.00;60274.75;6211069;28;20305;-64
2022/09/05 02:06:34;;;;;;;4.13;3.83;;;;;;;-144.22;100.00;60274.75;6180819;28;20233;-64
2022/09/05 02:10:03;;;;;;;4.67;4.27;;;;;;;-144.22;100.00;60274.75;6181982;28;20225;-64
2022/09/05 02:13:24;;;;;;;4.03;3.63;;;;;;;-144.22;100.00;60274.75;6180330;28;20250;-64
2022/09/05 02:16:35;;;;;;;5.13;4.63;;;;;;;-144.22;100.00;60274.75;6179960;28;20365;-64
2022/09/05 02:19:49;;;;;;;4.50;4.10;;;;;;;-144.22;100.00;60274.75;6175580;28;20694;-64
2022/09/05 02:23:06;;;;;;;5.13;4.50;;;;;;;-144.22;100.00;60274.75;6165961;28;20324;-64
2022/09/05 02:26:50;;;;;;;4.97;4.53;;;;;;;-144.22;100.00;60274.75;6181489;28;20246;-64
2022/09/05 02:30:12;;;;;;;4.80;4.40;;;;;;;-144.22;100.00;60274.75;6150481;28;20221;-64
2022/09/05 02:33:16;;;;;;;5.87;4.33;;;;;;;-144.22;100.00;60274.75;6179254;28;20232;-64
2022/09/05 02:36:28;;;;;;;4.93;4.43;;;;;;;-144.22;100.00;60274.75;6178834;28;20604;-64
2022/09/05 02:39:50;;;;;;;4.77;4.40;;;;;;;-144.22;100.00;60274.75;6179675;28;20244;-64
2022/09/05 02:43:38;;;;;;;4.60;4.20;;;;;;;-144.22;100.00;60274.75;6180573;28;20217;-64
2022/09/05 02:47:21;;;;;;;4.47;4.07;;;;;;;-144.22;100.00;60274.75;6179496;28;20298;-64
2022/09/05 02:50:44;;;;;;;5.20;4.70;;;;;;;-144.22;100.00;60274.75;6177194;28;20279;-64
2022/09/05 02:54:20;;;;;;;4.67;4.27;;;;;;;-144.22;100.00;60274.75;6180225;28;20237;-64
2022/09/05 02:57:46;;;;;;;5.30;4.77;;;;;;;-144.22;100.00;60274.75;6179971;28;20294;-64
2022/09/05 03:01:50;;;;;;;5.90;5.23;;;;;;;-144.22;100.00;60274.75;6178868;28;20233;-64
2022/09/05 03:05:07;;;;;;;4.97;4.57;;;;;;;-144.22;100.00;60274.75;6211357;28;20247;-64
2022/09/05 03:08:15;;;;;;;5.10;4.70;;;;;;;-144.22;100.00;60274.75;6232704;28;20240;-64
2022/09/05 03:11:50;;;;;;;5.60;4.97;;;;;;;-144.22;100.00;60274.75;6233216;28;20301;-64
2022/09/05 03:15:31;;;;;;;5.90;4.73;;;;;;;-144.22;100.00;60274.75;6232040;28;20242;-64
2022/09/05 03:19:10;;;;;;;5.40;4.80;;;;;;;-144.22;100.00;60274.75;6233331;28;20228;-64
2022/09/05 03:22:43;;;;;;;6.10;5.00;;;;;;;-144.22;100.00;60274.75;6231450;28;20224;-64
2022/09/05 03:26:35;;;;;;;5.60;4.73;;;;;;;-144.22;100.00;60274.75;6234565;28;20247;-64
2022/09/05 03:30:00;;;;;;;5.70;5.27;;;;;;;-144.22;100.00;60274.75;6157674;28;20292;-64
2022/09/05 03:33:35;;;;;;;6.83;5.13;;;;;;;-144.22;100.00;60274.75;6170290;28;20237;-64
2022/09/05 03:36:51;;;;;;;6.30;5.70;;;;;;;-144.22;100.00;60274.75;6239693;28;20683;-64
2022/09/05 03:40:58;;;;;;;5.60;5.10;;;;;;;-144.22;100.00;60274.75;6233764;28;20639;-64
2022/09/05 03:44:03;;;;;;;5.23;4.83;;;;;;;-144.22;100.00;60274.75;6133253;29;20361;-64
2022/09/05 03:47:43;;;;;;;6.30;5.70;;;;;;;-144.22;100.00;60274.75;6132258;29;20233;-64
2022/09/05 03:51:16;;;;;;;6.20;5.70;;;;;;;-144.22;100.00;60274.75;6133361;28;20600;-64
2022/09/05 03:55:11;;;;;;;5.77;5.23;;;;;;;-144.22;100.00;60274.75;6106367;29;20239;-64
2022/09/05 03:59:04;;;;;;;5.83;5.37;;;;;;;-144.22;100.00;60274.75;6111974;29;20252;-64
2022/09/05 04:02:10;;;;;;;5.70;5.07;;;;;;;-144.22;100.00;60274.75;6131675;29;20232;-64
2022/09/05 04:05:37;;;;;;;5.30;4.80;;;;;;;-144.22;100.00;60274.75;6133672;29;20729;-64
2022/09/05 04:09:16;;;;;;;5.40;5.00;;;;;;;-144.22;100.00;60274.75;6132059;29;20278;-64
2022/09/05 04:13:02;;;;;;;6.07;5.53;;;;;;;-144.22;100.00;60274.75;6132360;29;20583;-64
2022/09/05 04:16:12;;;;;;;5.40;5.00;;;;;;;-144.22;100.00;60274.75;6231392;28;20649;-64
2022/09/05 04:19:41;;;;;;;6.10;5.60;;;;;;;-144.22;100.00;60274.75;6214059;28;20269;-64
2022/09/05 04:23:28;;;;;;;6.50;5.93;;;;;;;-144.22;100.00;60274.75;6215573;28;20358;-64
2022/09/05 04:26:54;;;;;;;6.70;5.90;;;;;;;-144.22;100.00;60274.75;6230765;28;20239;-64
2022/09/05 04:29:59;;;;;;;6.17;5.67;;;;;;;-144.22;100.00;60274.75;6214939;28;21007;-64
2022/09/05 04:33:20;;;;;;;7.07;6.47;;;;;;;-144.22;100.00;60274.75;6231831;28;20668;-64
2022/09/05 04:36:39;;;;;;;6.73;6.07;;;;;;;-144.22;100.00;60274.75;6216091;28;20243;-64
2022/09/05 04:39:42;;;;;;;6.77;6.17;;;;;;;-144.22;100.00;60274.75;6233466;28;20236;-64
2022/09/05 04:42:45;;;;;;;5.77;5.27;;;;;;;-144.22;100.00;60274.75;6230933;28;20709;-64
2022/09/05 04:45:58;;;;;;;6.30;5.80;;;;;;;-144.22;100.00;60274.75;6230214;28;20776;-64
2022/09/05 04:49:00;;;;;;;6.13;5.63;;;;;;;-144.22;100.00;60274.75;6198927;28;20681;-64
2022/09/05 04:52:30;;;;;;;6.67;6.07;;;;;;;-144.22;100.00;60274.75;6230350;28;20235;-64
2022/09/05 04:55:56;;;;;;;7.27;6.57;;;;;;;-144.22;100.00;60274.75;6229682;28;20240;-64
2022/09/05 04:59:09;;;;;;;7.27;6.60;;;;;;;-144.22;100.00;60274.75;6230151;28;20235;-64
2022/09/05 05:02:37;;;;;;;8.50;6.40;;;;;;;-144.22;100.00;60274.75;6232088;28;20269;-64
2022/09/05 05:06:01;;;;;;;8.87;6.63;;;;;;;-144.22;100.00;60274.75;6230730;28;20240;-64
2022/09/05 05:09:33;;;;;;;7.97;6.63;;;;;;;-144.22;100.00;60274.75;6230797;28;20244;-64
2022/09/05 05:12:54;;;;;;;7.17;6.57;;;;;;;-144.22;100.00;60274.75;6233428;28;20226;-64
2022/09/05 05:16:24;;;;;;;6.10;5.60;;;;;;;-144.22;100.00;60274.75;6230149;28;20239;-64
2022/09/05 05:19:55;;;;;;;7.20;6.60;;;;;;;-144.22;100.00;60274.75;6229672;28;20297;-64
2022/09/05 05:23:27;;;;;;;7.50;6.90;;;;;;;-144.22;100.00;60274.75;6229087;28;20313;-64
2022/09/05 05:26:40;;;;;;;6.97;6.37;;;;;;;-144.22;100.00;60274.75;6230059;28;20267;-64
2022/09/05 05:29:56;;;;;;;6.70;6.10;;;;;;;-144.22;100.00;60274.75;6231451;28;20259;-64
2022/09/05 05:33:08;;;;;;;7.03;6.37;;;;;;;-144.22;100.00;60274.75;6230341;28;20239;-64
2022/09/05 05:36:19;;;;;;;6.57;5.97;;;;;;;-144.22;100.00;60274.75;6228555;28;20267;-64
2022/09/05 05:39:28;;;;;;;6.17;5.67;;;;;;;-144.22;100.00;60274.75;6229165;28;20315;-64
2022/09/05 05:42:31;;;;;;;7.37;6.77;;;;;;;-144.22;100.00;60274.75;6228850;28;20701;-64
2022/09/05 05:45:33;;;;;;;6.23;5.67;;;;;;;-144.22;100.00;60274.75;6210530;28;20317;-64
2022/09/05 05:48:38;;;;;;;5.90;5.40;;;;;;;-144.22;100.00;60274.75;6227954;28;20242;-64
2022/09/05 05:52:15;;;;;;;7.10;6.50;;;;;;;-144.22;100.00;60274.75;6229132;28;20231;-64
2022/09/05 05:55:30;;;;;;;7.47;6.17;;;;;;;-144.22;100.00;60274.75;6186236;28;20236;-64
2022/09/05 05:59:19;;;;;;;6.50;6.00;;;;;;;-144.22;100.00;60274.75;6228669;28;20228;-64
2022/09/05 06:02:56;;;;;;;6.03;5.53;;;;;;;-144.22;100.00;60274.75;6228362;28;20421;-64
2022/09/05 06:06:51;;;;;;;6.40;5.83;;;;;;;-144.22;100.00;60274.75;6227313;28;20224;-64
2022/09/05 06:10:38;;;;;;;6.47;5.97;;;;;;;-144.22;100.00;60274.75;6229702;28;20242;-64
2022/09/05 06:14:48;;;;;;;6.03;5.43;;;;;;;-144.22;100.00;60274.75;6226648;28;20822;-64
2022/09/05 06:18:31;;;;;;;5.57;5.07;;;;;;;-144.22;100.00;60274.75;6132982;28;20321;-64
2022/09/05 06:21:45;;;;;;;6.00;5.50;;;;;;;-144.22;100.00;60274.75;6129579;28;20278;-64
2022/09/05 06:25:25;;;;;;;5.97;5.33;;;;;;;-144.22;100.00;60274.75;6129834;28;20253;-64
2022/09/05 06:28:46;;;;;;;5.73;5.07;;;;;;;-144.22;100.00;60274.75;6127815;28;20389;-64
2022/09/05 06:32:06;;;;;;;5.50;5.10;;;;;;;-144.22;100.00;60274.75;6129674;28;20742;-64
2022/09/05 06:35:32;;;;;;;6.20;5.60;;;;;;;-144.22;100.00;60274.75;6129546;28;20259;-64
2022/09/05 06:39:09;;;;;;;4.60;4.23;;;;;;;-144.22;100.00;60274.75;6129726;28;20323;-64
2022/09/05 06:42:29;;;;;;;5.50;5.00;;;;;;;-144.22;100.00;60274.75;6127892;28;20226;-64
2022/09/05 06:46:05;;;;;;;5.30;4.90;;;;;;;-144.22;100.00;60274.75;6128717;28;20703;-64
2022/09/05 06:49:17;;;;;;;5.17;4.70;;;;;;;-144.22;100.00;60274.75;6128663;28;20242;-64
2022/09/05 06:52:54;;;;;;;5.20;4.80;;;;;;;-144.22;100.00;60274.75;6165630;28;20228;-64
2022/09/05 06:56:26;;;;;;;6.17;5.57;;;;;;;-144.22;100.00;60274.75;6226513;28;20232;-64
2022/09/05 06:59:59;;;;;;;5.57;5.07;;;;;;;-144.22;100.00;60274.75;6226496;28;20236;-64
2022/09/05 07:03:25;;;;;;;6.27;5.23;;;;;;;-144.22;100.00;60274.75;6194513;28;20239;-65
2022/09/05 07:10:03;;;;;;;6.27;5.77;;;;;;;-144.22;100.00;60274.75;2992447;23;20321;-43
2022/09/05 07:13:34;;;;;;;7.83;7.13;;;;;;;-144.22;100.00;60274.75;6132248;28;20709;-43
2022/09/05 07:17:04;;;;;;;7.23;6.53;;;;;;;-144.22;100.00;60274.75;6138073;28;20733;-43
2022/09/05 07:20:27;;;;;;;7.33;6.73;;;;;;;-144.22;100.00;60274.75;6132285;28;20608;-43
2022/09/05 07:23:44;;;;;;;7.07;6.47;;;;;;;-144.22;100.00;60274.75;6132765;28;20607;-43
2022/09/05 07:27:10;;;;;;;10.03;9.03;;;;;;;-144.22;100.00;60274.75;6131854;28;20708;-42
2022/09/05 07:30:17;;;;;;;6.63;6.00;;;;;;;-144.22;100.00;60274.75;6132770;28;20678;-43
2022/09/05 07:33:25;;;;;;;7.40;6.70;;;;;;;-144.22;100.00;60274.75;6130580;28;20231;-43
2022/09/05 07:36:36;;;;;;;5.97;5.47;;;;;;;-144.22;100.00;60274.75;6131837;28;20609;-43
2022/09/05 07:39:42;;;;;;;5.23;4.83;;;;;;;-144.22;100.00;60274.75;6132133;28;20234;-43
2022/09/05 07:42:55;;;;;;;6.10;5.60;;;;;;;-144.22;100.00;60274.75;6131986;28;20334;-43
2022/09/05 07:46:19;;;;;;;5.30;4.70;;;;;;;-144.22;100.00;60274.75;6133043;28;20777;-43
2022/09/05 07:49:27;;;;;;;4.53;4.13;;;;;;;-144.22;100.00;60274.75;6131756;28;20714;-43
2022/09/05 07:52:39;;;;;;;5.23;4.77;;;;;;;-144.22;100.00;60274.75;6115732;28;20277;-43
2022/09/05 07:56:03;;;;;;;4.67;4.27;;;;;;;-144.22;100.00;60274.75;6135269;28;20238;-44
2022/09/05 07:59:29;;;;;;;9.03;8.20;;;;;;;-144.22;100.00;60274.75;6136571;28;20258;-44
2022/09/05 08:02:32;;;;;;;5.30;4.90;;;;;;;-144.22;100.00;60274.75;6136044;28;20611;-43
2022/09/05 08:05:41;;;;;;;4.90;4.30;;;;;;;-144.22;100.00;60274.75;6135105;28;20737;-43
2022/09/05 08:09:13;;;;;;;5.10;4.07;;;;;;;-144.22;100.00;60274.75;6135293;28;20262;-43
2022/09/05 08:12:47;;;;;;;7.77;6.03;;;;;;;-144.22;100.00;60274.75;6136162;28;20241;-42
2022/09/05 08:16:14;;;;;;;5.97;5.37;;;;;;;-144.22;100.00;60274.75;6135853;28;20385;-43
2022/09/05 08:19:37;;;;;;;4.50;4.10;;;;;;;-144.22;100.00;60274.75;6132982;28;20234;-42
2022/09/05 08:23:05;;;;;;;5.73;4.67;;;;;;;-144.22;100.00;60274.75;6136364;28;20540;-42
2022/09/05 08:26:36;;;;;;;4.83;4.30;;;;;;;35.05;100.00;82497.09;6125507;28;20229;-45
2022/09/05 08:29:42;;;;;;;4.47;3.60;;;;;;;-144.22;100.00;60274.75;6136174;28;20226;-43
2022/09/05 08:33:16;;;;;;;5.97;4.63;;;;;;;-144.22;100.00;60274.75;6134769;28;20325;-43
2022/09/05 08:36:19;;;;;;;5.10;4.60;;;;;;;23.45;100.00;80917.38;6134040;28;20310;-43
2022/09/05 08:39:25;;;;;;;4.57;4.03;;;;;;;-144.22;100.00;60274.75;6135861;28;20296;-44
2022/09/05 08:42:34;;;;;;;5.00;4.50;;;;;;;-144.22;100.00;60274.75;6133632;28;20238;-43
2022/09/05 08:45:47;;;;;;;4.90;4.50;;;;;;;-144.22;100.00;60274.75;6140335;28;20321;-43
2022/09/05 08:49:46;;;;;;;6.30;4.90;;;;;;;-144.22;100.00;60274.75;6133251;28;20241;-43
2022/09/05 08:53:11;;;;;;;5.37;4.87;;;;;;;-144.22;100.00;60274.75;6135117;28;20250;-43
2022/09/05 08:56:46;;;;;;;6.17;5.53;;;;;;;-144.22;100.00;60274.75;6133667;28;20238;-43
2022/09/05 09:00:07;;;;;;;6.40;5.80;;;;;;;-144.22;100.00;60274.75;6137299;28;20282;-43
2022/09/05 09:03:41;;;;;;;4.40;4.03;;;;;;;-144.22;100.00;60274.75;6134047;28;20332;-43
2022/09/05 09:07:28;;;;;;;6.20;5.60;;;;;;;-144.22;100.00;60274.75;6133836;28;20230;-43
2022/09/05 09:11:00;;;;;;;7.60;5.07;;;;;;;-144.22;100.00;60274.75;6133747;28;20238;-45
2022/09/05 09:14:37;;;;;;;4.67;4.23;;;;;;;42.51;100.00;60274.75;6133608;29;20282;-43
2022/09/05 09:17:48;;;;;;;5.17;4.67;;;;;;;-144.22;100.00;60274.75;6133055;29;20235;-43
2022/09/05 09:20:56;;;;;;;4.97;4.40;;;;;;;-144.22;100.00;60274.75;6134447;29;20234;-44
2022/09/05 09:24:04;;;;;;;4.33;3.67;;;;;;;-144.22;100.00;60274.75;6134007;29;20709;-43
2022/09/05 09:27:35;;;;;;;4.40;4.00;;;;;;;-144.22;100.00;60274.75;6132568;29;20618;-43
2022/09/05 09:31:25;;;;;;;4.43;4.03;;;;;;;-144.22;100.00;60274.75;6134594;29;20411;-43
2022/09/05 09:34:31;;;;;;;4.00;3.60;;;;;;;-144.22;100.00;60274.75;6122976;29;20744;-43
2022/09/05 09:38:17;;;;;;;5.90;3.92;;;;;;;25.19;47.95;98467.72;6133729;29;20244;-44
2022/09/05 09:41:19;;;;;;;4.85;4.28;;;;;;;24.75;48.72;98458.00;6133303;29;20226;-45
2022/09/05 09:44:33;;;;;;;4.50;3.50;;;;;;;-144.22;100.00;60274.75;6133429;29;20235;-43
2022/09/05 09:47:50;;;;;;;4.15;3.75;;;;;;;-144.22;100.00;60274.75;6131721;29;20238;-43
2022/09/05 09:51:08;;;;;;;5.90;3.70;;;;;;;-144.22;100.00;60274.75;6132368;28;20230;-44
2022/09/05 09:54:16;;;;;;;6.78;3.67;;;;;;;25.00;49.28;98440.38;6132999;28;20717;-44
2022/09/05 09:57:18;;;;;;;5.25;3.97;;;;;;;24.75;49.34;98440.97;6131875;29;20314;-43
2022/09/05 10:00:22;;;;;;;6.28;4.50;;;;;;;24.53;49.73;98440.97;6135961;29;20215;-44
2022/09/05 10:03:39;;;;;;;5.93;4.88;;;;;;;24.50;50.42;98443.22;6131562;29;20227;-44
2022/09/05 10:07:10;;;;;;;6.18;3.85;;;;;;;25.31;49.00;98439.97;6131986;28;20237;-44
2022/09/05 10:10:38;;;;;;;5.35;4.85;;;;;;;25.13;49.10;98436.09;6132626;29;20238;-44
2022/09/05 10:14:48;;;;;;;4.55;4.15;;;;;;;24.60;48.67;98441.03;6114924;28;20238;-43
2022/09/05 10:18:18;;;;;;;5.90;3.90;;;;;;;24.40;50.83;98440.84;6090680;29;20325;-44
2022/09/05 10:21:46;;;;;;;3.30;3.00;;;;;;;-144.22;100.00;60274.75;6132096;29;20233;-44
2022/09/05 10:25:06;;;;;;;3.63;3.33;;;;;;;25.53;47.03;98429.91;6132607;29;20238;-45
2022/09/05 10:28:54;;;;;;;4.53;4.13;;;;;;;25.07;47.80;98421.50;6131990;29;20235;-43
2022/09/05 10:32:23;;;;;;;4.38;3.08;;;;;;;32.13;100.00;60274.75;6132409;29;20234;-45
2022/09/05 10:35:50;;;;;;;3.60;3.17;;;;;;;-144.22;100.00;60274.75;6131923;29;20242;-43
2022/09/05 10:39:25;;;;;;;4.05;3.05;;;;;;;-144.22;100.00;60274.75;6132567;29;20710;-46
2022/09/05 10:42:36;;;;;;;3.00;2.80;;;;;;;-144.22;100.00;60274.75;6130858;29;20253;-43
2022/09/05 10:46:20;;;;;;;4.15;3.10;;;;;;;-144.22;100.00;60274.75;6131091;29;20234;-44
2022/09/05 10:49:46;;;;;;;3.95;3.25;;;;;;;-144.22;100.00;60274.75;6132557;29;20239;-46
2022/09/05 10:52:48;;;;;;;3.45;3.10;;;;;;;-144.22;100.00;60274.75;6132560;28;20230;-44
2022/09/05 10:56:17;;;;;;;4.32;3.40;;;;;;;-144.22;100.00;60274.75;6130283;29;20608;-45
2022/09/05 10:59:27;;;;;;;4.07;2.90;;;;;;;-144.22;100.00;60274.75;6131979;29;20301;-45
2022/09/05 11:02:55;;;;;;;3.33;3.00;;;;;;;-144.22;100.00;60274.75;6131632;29;20604;-45
2022/09/05 11:06:04;;;;;;;3.05;2.75;;;;;;;-144.22;100.00;60274.75;6131610;28;20803;-44
2022/09/05 11:09:20;;;;;;;2.60;2.40;;;;;;;-144.22;100.00;60274.75;6130434;29;20716;-43
2022/09/05 11:12:34;;;;;;;2.53;2.33;;;;;;;-144.22;100.00;60274.75;6131374;29;20705;-45
2022/09/05 11:15:48;;;;;;;2.38;2.17;;;;;;;-144.22;100.00;60274.75;6131687;29;20250;-48
2022/09/05 11:19:17;;;;;;;2.70;2.50;;;;;;;-144.22;100.00;60274.75;6132390;29;20724;-44
2022/09/05 11:22:22;;;;;;;2.50;2.30;;;;;;;-144.22;100.00;60274.75;6107633;29;20246;-45
2022/09/05 11:25:27;;;;;;;2.40;2.20;;;;;;;-144.22;100.00;60274.75;6106669;29;20722;-45
2022/09/05 11:28:55;;;;;;;2.60;2.17;;;;;;;-144.22;100.00;60274.75;6135665;29;20239;-44
2022/09/05 11:32:31;;;;;;;2.25;2.03;;;;;;;-144.22;100.00;60274.75;6134926;29;20235;-44
2022/09/05 11:35:56;;;;;;;3.20;2.30;;;;;;;-144.22;100.00;60274.75;6135572;29;20325;-44
2022/09/05 11:39:46;;;;;;;2.40;2.20;;;;;;;-144.22;100.00;60274.75;6134392;28;20283;-44
2022/09/05 11:43:20;;;;;;;3.53;2.08;;;;;;;-144.22;100.00;60274.75;6112853;29;20239;-43
2022/09/05 11:47:00;;;;;;;2.10;1.90;;;;;;;-144.22;100.00;60274.75;6119637;29;20714;-44
2022/09/05 11:50:40;;;;;;;1.95;1.85;;;;;;;-144.22;100.00;60274.75;6136233;28;20276;-43
2022/09/05 11:53:51;;;;;;;2.80;2.00;;;;;;;-144.22;100.00;60274.75;6135030;28;20254;-46
2022/09/05 11:57:22;;;;;;;2.50;2.30;;;;;;;-144.22;100.00;60274.75;6128783;28;20239;-46
2022/09/05 12:00:45;;;;;;;2.17;1.95;;;;;;;-144.22;100.00;60274.75;6133772;29;20231;-44
2022/09/05 12:04:18;;;;;;;2.70;1.80;;;;;;;-144.22;100.00;60274.75;6134995;28;20713;-44
2022/09/05 12:07:39;;;;;;;2.10;2.00;;;;;;;-144.22;100.00;60274.75;6136284;29;20714;-44
2022/09/05 12:11:09;;;;;;;2.10;1.90;;;;;;;-144.22;100.00;60274.75;6135897;29;20245;-44
2022/09/05 12:14:28;;;;;;;1.83;1.73;;;;;;;30.83;100.00;60274.75;6134770;29;20222;-46
2022/09/05 12:17:50;;;;;;;1.80;1.70;;;;;;;-144.22;100.00;60274.75;6117670;29;20246;-46
2022/09/05 12:21:03;;;;;;;2.22;2.00;;;;;;;30.02;100.00;60274.75;6134469;29;20251;-45
2022/09/05 12:24:22;;;;;;;3.30;1.85;;;;;;;30.83;100.00;60274.75;6095354;29;20235;-45
2022/09/05 12:27:50;;;;;;;3.83;1.90;;;;;;;30.10;100.00;60274.75;6110135;29;20238;-44
2022/09/05 12:31:49;;;;;;;2.80;1.83;;;;;;;-144.22;100.00;60274.75;6110071;29;20579;-43
2022/09/05 12:35:17;;;;;;;2.85;2.28;;;;;;;29.67;100.00;60274.75;6005391;29;20229;-46
2022/09/05 12:38:41;;;;;;;3.50;2.10;;;;;;;-144.22;100.00;60274.75;6037643;29;20685;-45
2022/09/05 12:42:49;;;;;;;2.50;1.90;;;;;;;-144.22;100.00;60274.75;6036696;29;20252;-44
2022/09/05 12:46:29;;;;;;;2.45;2.25;;;;;;;30.83;100.00;60274.75;6034086;29;20361;-46
2022/09/05 12:49:39;;;;;;;2.03;1.83;;;;;;;-144.22;100.00;60274.75;6038190;29;20611;-46
2022/09/05 12:53:09;;;;;;;3.13;1.80;;;;;;;-144.22;100.00;60274.75;6041341;29;20230;-44
2022/09/05 12:56:25;;;;;;;2.20;2.00;;;;;;;30.83;100.00;60274.75;6037131;29;20400;-44
2022/09/05 12:59:50;;;;;;;2.05;1.95;;;;;;;-144.22;100.00;60274.75;6037522;29;20366;-45
2022/09/05 13:03:17;;;;;;;2.35;2.13;;;;;;;30.16;100.00;60274.75;6037646;29;20330;-45
2022/09/05 13:06:42;;;;;;;1.90;1.70;;;;;;;-144.22;100.00;60274.75;6020293;29;20229;-47
2022/09/05 13:09:52;;;;;;;2.60;1.80;;;;;;;-144.22;100.00;60274.75;6072625;29;20653;-46
2022/09/05 13:13:33;;;;;;;2.80;2.20;;;;;;;-144.22;100.00;60274.75;6133532;29;20238;-45
2022/09/05 13:16:58;;;;;;;2.17;1.98;;;;;;;30.83;100.00;60274.75;6133734;29;20242;-46
2022/09/05 13:20:02;;;;;;;3.58;2.22;;;;;;;-144.22;100.00;60274.75;6132965;28;20222;-46
2022/09/05 13:23:30;;;;;;;2.05;1.85;;;;;;;30.46;35.23;98261.84;6132294;29;20719;-45
2022/09/05 13:27:06;;;;;;;2.63;2.05;;;;;;;29.50;37.37;98262.06;6133046;29;20736;-44
2022/09/05 13:30:11;;;;;;;2.55;2.30;;;;;;;-144.22;100.00;60274.75;6124199;29;20309;-44
2022/09/05 13:33:47;;;;;;;2.13;2.03;;;;;;;-144.22;100.00;60274.75;6133080;29;20310;-48
2022/09/05 13:37:31;;;;;;;3.75;2.05;;;;;;;31.41;32.64;98261.56;6132623;29;20266;-47
2022/09/05 13:40:58;;;;;;;2.25;2.08;;;;;;;29.17;36.48;98254.28;6132653;29;20266;-46
2022/09/05 13:44:09;;;;;;;2.88;2.25;;;;;;;28.87;37.42;98249.63;6131431;29;20245;-47
2022/09/05 13:47:56;;;;;;;1.80;1.70;;;;;;;31.76;100.00;60274.75;6132995;29;20235;-47
2022/09/05 13:51:27;;;;;;;2.67;1.83;;;;;;;32.94;30.65;98247.53;6132612;28;20230;-44
2022/09/05 13:54:37;;;;;;;2.60;1.90;;;;;;;-144.22;100.00;60274.75;6124536;29;20242;-45
2022/09/05 13:58:00;;;;;;;3.67;2.10;;;;;;;34.50;27.98;98237.75;6133377;29;20235;-45
2022/09/05 14:01:08;;;;;;;3.08;1.90;;;;;;;-144.22;100.00;60274.75;6132016;29;20243;-45
2022/09/05 14:04:33;;;;;;;3.55;2.08;;;;;;;36.05;26.41;98233.19;6115447;28;20254;-45
2022/09/05 14:08:23;;;;;;;2.20;2.00;;;;;;;35.16;26.29;98226.06;6107439;29;20272;-45
2022/09/05 14:11:31;;;;;;;1.90;1.80;;;;;;;32.20;31.31;98218.81;6132426;29;20234;-45
2022/09/05 14:14:43;;;;;;;1.98;1.88;;;;;;;30.09;34.77;98225.81;6132570;29;20289;-44
2022/09/05 14:18:20;;;;;;;2.45;2.25;;;;;;;29.09;36.47;98227.41;6132146;29;20238;-45
2022/09/05 14:21:27;;;;;;;2.05;1.80;;;;;;;29.44;35.96;98225.75;6131816;29;20293;-46
2022/09/05 14:24:35;;;;;;;3.15;2.03;;;;;;;28.82;36.95;98210.59;6109971;29;21115;-44
2022/09/05 14:27:43;;;;;;;4.15;1.95;;;;;;;28.33;38.03;98206.09;6128062;29;20503;-44
2022/09/05 14:30:50;;;;;;;2.17;2.00;;;;;;;28.59;37.48;98212.06;6115515;29;20231;-45
2022/09/05 14:34:37;;;;;;;2.70;2.00;;;;;;;28.99;36.63;98203.50;6132479;29;20352;-45
2022/09/05 14:38:12;;;;;;;2.30;2.10;;;;;;;29.13;36.55;98201.44;6131602;29;20246;-46
2022/09/05 14:41:23;;;;;;;2.88;1.98;;;;;;;31.32;32.75;98198.38;6115585;29;20238;-44
2022/09/05 14:44:52;;;;;;;2.65;2.03;;;;;;;33.50;29.85;98198.19;6131493;29;20291;-45
2022/09/05 14:48:21;;;;;;;2.58;1.75;;;;;;;35.42;25.97;98194.09;6133539;29;20274;-44
2022/09/05 14:51:34;;;;;;;1.92;1.83;;;;;;;34.37;28.37;98198.72;6132089;28;20257;-48
2022/09/05 14:54:38;;;;;;;1.90;1.70;;;;;;;35.72;25.97;98198.81;6131684;28;20348;-45
2022/09/05 14:58:03;;;;;;;2.00;1.90;;;;;;;36.05;25.68;98194.72;6130754;29;20275;-45
2022/09/05 15:01:29;;;;;;;2.00;1.88;;;;;;;36.49;24.99;98200.50;6133811;28;20333;-46
2022/09/05 15:04:56;;;;;;;2.67;1.92;;;;;;;37.62;23.47;98199.03;6063632;29;20581;-46
2022/09/05 15:08:04;;;;;;;1.83;1.73;;;;;;;37.79;23.62;98193.13;6063095;29;20333;-44
2022/09/05 15:11:28;;;;;;;2.65;2.05;;;;;;;35.43;26.41;98195.75;6083904;29;20319;-44
2022/09/05 15:15:02;;;;;;;2.42;1.85;;;;;;;31.45;32.51;98189.88;6087619;29;20256;-45
2022/09/05 15:18:16;;;;;;;1.80;1.60;;;;;;;29.83;35.71;98194.41;6086260;29;20668;-44
2022/09/05 15:21:24;;;;;;;1.90;1.60;;;;;;;29.19;37.50;98198.63;6087660;29;20628;-50
2022/09/05 15:24:35;;;;;;;2.88;2.20;;;;;;;28.40;38.17;98196.81;6136076;28;20273;-45
2022/09/05 15:27:37;;;;;;;2.38;2.10;;;;;;;27.66;39.77;98192.19;6136248;28;20320;-47
2022/09/05 15:30:54;;;;;;;1.83;1.73;;;;;;;27.20;41.38;98192.44;6136897;28;20248;-46
2022/09/05 15:34:21;;;;;;;2.28;2.08;;;;;;;26.91;42.49;98192.97;6136384;28;20726;-44
2022/09/05 15:37:35;;;;;;;3.50;2.25;;;;;;;26.56;42.86;98185.16;6136581;28;20250;-44
2022/09/05 15:40:38;;;;;;;2.28;2.08;;;;;;;26.28;43.88;98187.28;6135500;28;20234;-44